LEMG

Málaga Airport

Málaga, Spain
TAF LEMG 221100Z 2212/2312 30010KT 9999 FEW035 TX16/2215Z TN08/2307Z TEMPO 2212/2217 30015G25KT TEMPO 2310/2312 30015G25KT
Issued Valid From Valid To
Jan-22 @ 11:00 UTC
(6 hours ago)
Jan-22 @ 12:00 UTC
(5 hours ago)
Jan-23 @ 12:00 UTC
(in 19 hours)
Jan-22 @ 12:00 to Jan-23 @ 12:00
TAF LEMG 221100Z 2212/2312 30010KT 9999 FEW035 TX16/2215Z TN08/2307Z
Wind Visibility Clouds
300° at 10 knots 10,000+ meters
  • Few at 3,500' AGL
Temporary Jan-22 @ 12:00 to Jan-22 @ 17:00
TEMPO 2212/2217 30015G25KT
Wind
300° at 15 knots
 Gusting to 25 knots
Temporary Jan-23 @ 10:00 to Jan-23 @ 12:00
TEMPO 2310/2312 30015G25KT
Wind
300° at 15 knots
 Gusting to 25 knots
TAF LEMG 221100Z 2212/2312 30010KT 9999 FEW035 TX16/2215Z TN08/2307Z TEMPO 2212/2217 30015G25KT TEMPO 2310/2312 30015G25KT
Issued Jan-22 @ 11:00 UTC
(6 hours ago)
Valid From Jan-22 @ 12:00 UTC
(5 hours ago)
Valid To Jan-23 @ 12:00 UTC
(in 19 hours)
Jan-22 @ 12:00 - Jan-23 @ 12:00
Wind Visibility
300° at 10 knots 10,000+ meters
Clouds
  • Few at 3,500' AGL
Temporary Jan-22 @ 12:00 - Jan-22 @ 17:00
Wind
300° at 15 knots
 Gusting to 25 knots
Temporary Jan-23 @ 10:00 - Jan-23 @ 12:00
Wind
300° at 15 knots
 Gusting to 25 knots